Time;durP1;ratioP1;P1;durP2;ratioP2;P2;SDS_P1;SDS_P2;PMS_P1;PMS_P2;Temp;Humidity;BMP_temperature;BMP_pressure;BME280_temperature;BME280_humidity;BME280_pressure;Samples;Min_cycle;Max_cycle;Signal;HPM_P1;HPM_P2
2021/01/08 00:00:50;;;;;;;9.20;4.90;;;;;;;1.13;95.64;96155.13;4979548;28;20299;-50
2021/01/08 00:03:17;;;;;;;9.00;5.07;;;;;;;1.18;95.47;96145.56;4980818;28;20230;-48
2021/01/08 00:05:44;;;;;;;14.40;6.15;;;;;;;1.23;94.91;96151.38;4981490;28;20620;-50
2021/01/08 00:08:10;;;;;;;11.95;5.30;;;;;;;1.22;95.25;96148.84;4979368;28;20620;-47
2021/01/08 00:10:37;;;;;;;9.80;5.55;;;;;;;1.23;95.42;96155.66;4982779;28;20716;-48
2021/01/08 00:13:04;;;;;;;11.77;6.80;;;;;;;1.19;95.91;96160.03;4981909;28;20252;-47
2021/01/08 00:15:32;;;;;;;9.90;5.35;;;;;;;1.23;96.06;96165.91;4981175;28;20735;-46
2021/01/08 00:17:59;;;;;;;11.07;6.25;;;;;;;1.22;95.92;96159.09;4981266;28;20198;-47
2021/01/08 00:20:37;;;;;;;7.85;3.85;;;;;;;1.14;96.10;96153.41;4980189;28;20225;-48
2021/01/08 00:23:07;;;;;;;9.63;4.72;;;;;;;1.08;96.66;96154.44;4980542;28;20593;-47
2021/01/08 00:25:34;;;;;;;8.30;4.60;;;;;;;1.12;96.60;96157.75;4976157;28;20225;-47
2021/01/08 00:28:01;;;;;;;9.65;4.75;;;;;;;1.10;96.19;96156.97;4980805;28;20275;-47
2021/01/08 00:30:28;;;;;;;9.20;4.75;;;;;;;1.08;96.46;96143.34;4981805;28;20587;-47
2021/01/08 00:32:55;;;;;;;9.30;4.93;;;;;;;0.99;95.52;96149.63;4979538;28;20205;-48
2021/01/08 00:35:22;;;;;;;10.52;4.93;;;;;;;0.94;95.21;96155.75;4977964;28;20497;-49
2021/01/08 00:37:53;;;;;;;10.73;4.40;;;;;;;0.95;95.52;96148.03;4981849;28;20202;-47
2021/01/08 00:40:21;;;;;;;10.63;5.60;;;;;;;0.96;95.79;96147.13;4979844;28;20230;-46
2021/01/08 00:42:48;;;;;;;11.63;5.68;;;;;;;1.04;95.70;96152.84;4981016;28;20217;-48
2021/01/08 00:45:15;;;;;;;10.27;4.60;;;;;;;1.07;95.21;96151.91;4981352;28;20263;-46
2021/01/08 00:47:42;;;;;;;6.50;4.28;;;;;;;1.06;95.34;96156.22;4981061;28;20728;-46
2021/01/08 00:50:11;;;;;;;8.02;5.22;;;;;;;1.07;95.14;96146.78;4979270;28;20603;-48
2021/01/08 00:52:38;;;;;;;9.30;4.20;;;;;;;0.96;94.98;96147.13;4980927;28;20284;-47
2021/01/08 00:55:06;;;;;;;13.13;6.28;;;;;;;1.01;95.07;96149.56;4980652;28;20278;-46
2021/01/08 00:57:32;;;;;;;10.43;4.78;;;;;;;1.03;94.74;96151.19;4979662;28;20602;-48
2021/01/08 00:59:59;;;;;;;10.82;3.85;;;;;;;1.02;94.87;96152.06;4979294;28;20672;-46
2021/01/08 01:02:26;;;;;;;7.97;4.28;;;;;;;0.98;94.33;96157.34;4981146;28;20801;-47
2021/01/08 01:04:53;;;;;;;10.68;4.63;;;;;;;0.97;94.92;96148.00;4980792;28;20217;-46
2021/01/08 01:07:21;;;;;;;9.50;5.30;;;;;;;0.89;94.11;96137.97;4981523;28;20225;-48
2021/01/08 01:09:48;;;;;;;10.75;4.50;;;;;;;0.77;94.35;96146.06;4977597;28;20233;-50
2021/01/08 01:12:15;;;;;;;14.35;6.10;;;;;;;0.76;94.58;96144.38;4979692;28;20520;-46
2021/01/08 01:14:41;;;;;;;11.90;5.03;;;;;;;0.70;94.23;96149.69;4981037;28;20683;-46
2021/01/08 01:17:08;;;;;;;14.05;5.13;;;;;;;0.60;94.32;96148.28;4979849;28;20683;-48
2021/01/08 01:19:35;;;;;;;11.70;4.30;;;;;;;0.55;94.72;96151.88;4980327;28;20720;-48
2021/01/08 01:22:03;;;;;;;9.15;4.30;;;;;;;0.60;94.67;96157.72;4982614;28;20249;-49
2021/01/08 01:24:30;;;;;;;10.70;5.10;;;;;;;0.58;94.69;96155.19;4980532;28;20750;-46
2021/01/08 01:26:58;;;;;;;12.55;5.30;;;;;;;0.65;94.60;96155.81;4981254;28;20576;-46
2021/01/08 01:29:25;;;;;;;10.15;5.20;;;;;;;0.65;94.85;96155.81;4980194;28;20377;-48
2021/01/08 01:31:52;;;;;;;9.82;4.75;;;;;;;0.59;94.35;96154.31;4981711;28;20225;-48
2021/01/08 01:34:20;;;;;;;17.05;5.68;;;;;;;0.57;94.78;96147.56;4980434;28;20554;-48
2021/01/08 01:36:47;;;;;;;7.82;4.28;;;;;;;0.59;94.49;96156.88;4980843;28;20696;-46
2021/01/08 01:39:13;;;;;;;9.18;4.55;;;;;;;0.49;94.50;96155.47;4980136;28;20879;-46
2021/01/08 01:41:42;;;;;;;8.93;5.53;;;;;;;0.50;94.61;96164.81;4981542;28;20283;-48
2021/01/08 01:44:10;;;;;;;8.63;4.60;;;;;;;0.43;93.68;96163.34;4983839;28;20222;-46
2021/01/08 01:46:37;;;;;;;9.05;4.55;;;;;;;0.39;93.88;96168.59;4985633;28;20601;-48
2021/01/08 01:49:05;;;;;;;7.80;5.13;;;;;;;0.40;94.12;96162.59;4985863;28;20287;-47
2021/01/08 01:51:32;;;;;;;7.97;4.07;;;;;;;0.42;94.14;96159.09;4987852;28;20755;-46
2021/01/08 01:53:59;;;;;;;7.35;3.95;;;;;;;0.38;94.22;96162.63;4984592;28;20299;-46
2021/01/08 01:56:27;;;;;;;13.85;4.90;;;;;;;0.39;94.29;96164.28;4988339;28;20252;-47
2021/01/08 01:58:55;;;;;;;15.98;4.82;;;;;;;0.39;94.20;96166.84;4986537;28;20256;-47
2021/01/08 02:01:21;;;;;;;14.48;5.15;;;;;;;0.50;94.08;96167.38;4982186;28;20228;-47
2021/01/08 02:03:51;;;;;;;11.40;5.60;;;;;;;0.58;93.90;96164.56;4983660;28;20197;-48
2021/01/08 02:06:20;;;;;;;9.02;4.25;;;;;;;0.58;93.73;96168.00;4985889;28;20279;-47
2021/01/08 02:08:53;;;;;;;9.02;4.97;;;;;;;0.62;93.61;96168.75;4984244;28;20880;-49
2021/01/08 02:11:26;;;;;;;12.70;5.50;;;;;;;0.61;93.43;96170.44;4983968;28;20258;-48
2021/01/08 02:13:59;;;;;;;10.50;4.78;;;;;;;0.63;93.22;96171.25;4983654;28;20226;-50
2021/01/08 02:16:29;;;;;;;10.93;5.10;;;;;;;0.61;93.96;96167.88;4982079;28;20226;-48
2021/01/08 02:18:57;;;;;;;10.38;4.85;;;;;;;0.62;93.95;96167.03;4984862;28;20248;-47
2021/01/08 02:21:29;;;;;;;9.68;4.47;;;;;;;0.61;93.82;96175.56;4984190;28;20248;-48
2021/01/08 02:24:04;;;;;;;12.43;5.30;;;;;;;0.52;93.66;96165.59;4983672;28;20659;-46
2021/01/08 02:26:32;;;;;;;6.72;3.83;;;;;;;0.53;94.00;96162.16;4981491;23;20254;-69
2021/01/08 02:28:59;;;;;;;7.60;4.03;;;;;;;0.52;93.99;96165.59;4951166;28;20222;-69
2021/01/08 02:31:26;;;;;;;7.47;3.58;;;;;;;0.46;93.58;96164.97;4970162;28;20280;-71
2021/01/08 02:33:54;;;;;;;10.85;3.83;;;;;;;0.37;94.10;96150.72;4964152;28;20658;-69
2021/01/08 02:36:21;;;;;;;8.23;3.88;;;;;;;0.35;93.58;96162.72;4958087;28;20565;-70
2021/01/08 02:38:50;;;;;;;6.00;3.45;;;;;;;0.33;93.90;96163.66;4958026;28;20198;-70
2021/01/08 02:41:19;;;;;;;6.25;3.13;;;;;;;0.31;93.94;96153.44;4957378;28;20199;-72
2021/01/08 02:43:47;;;;;;;4.93;3.10;;;;;;;0.35;93.48;96156.75;4952431;28;20602;-69
2021/01/08 02:46:15;;;;;;;5.05;2.67;;;;;;;0.33;94.18;96169.63;4954234;28;20241;-72
2021/01/08 02:48:42;;;;;;;7.60;3.20;;;;;;;0.26;94.15;96163.00;4952848;28;20638;-72
2021/01/08 02:51:09;;;;;;;6.90;3.78;;;;;;;0.28;94.01;96171.47;4947512;28;20199;-71
2021/01/08 02:53:38;;;;;;;5.57;3.20;;;;;;;0.29;94.35;96165.47;4952583;28;20576;-70
2021/01/08 02:56:09;;;;;;;9.70;3.80;;;;;;;0.29;94.49;96168.03;4955710;28;20199;-70
2021/01/08 02:58:37;;;;;;;7.72;3.35;;;;;;;0.23;94.23;96163.06;4948352;28;20301;-70
2021/01/08 03:01:06;;;;;;;7.38;3.45;;;;;;;0.22;94.38;96163.97;4957179;28;20253;-71
2021/01/08 03:03:33;;;;;;;6.80;2.85;;;;;;;0.18;94.58;96164.09;4947317;28;20219;-72
2021/01/08 03:06:02;;;;;;;5.93;2.92;;;;;;;0.16;94.94;96164.13;4955269;28;20548;-71
2021/01/08 03:08:37;;;;;;;11.77;3.70;;;;;;;0.18;94.67;96164.09;4940572;28;20687;-72
2021/01/08 03:11:08;;;;;;;6.25;3.30;;;;;;;0.19;94.96;96158.09;4940415;28;20203;-71
2021/01/08 03:13:38;;;;;;;6.93;2.42;;;;;;;0.18;95.24;96154.72;4952523;28;20202;-71
2021/01/08 03:16:07;;;;;;;6.72;2.88;;;;;;;0.18;94.87;96152.16;4952276;28;20198;-73
2021/01/08 03:18:34;;;;;;;6.07;3.10;;;;;;;0.17;95.44;96150.47;4950761;28;20257;-72
2021/01/08 03:21:01;;;;;;;5.35;3.42;;;;;;;0.24;95.47;96146.84;4957024;28;20278;-72
2021/01/08 03:23:28;;;;;;;5.53;2.92;;;;;;;0.20;95.22;96152.09;4950633;28;20493;-72
2021/01/08 03:25:55;;;;;;;8.55;3.70;;;;;;;0.05;95.20;96130.38;4969036;28;20624;-73
2021/01/08 03:28:22;;;;;;;7.47;2.97;;;;;;;0.18;95.29;96144.47;4969565;28;20710;-69
2021/01/08 03:30:49;;;;;;;10.73;4.93;;;;;;;0.17;95.56;96145.34;4968878;28;20245;-70
2021/01/08 03:33:17;;;;;;;6.07;3.58;;;;;;;0.15;95.57;96149.66;4975151;28;20194;-69
2021/01/08 03:35:44;;;;;;;7.53;4.00;;;;;;;0.20;96.22;96152.94;4974606;28;20648;-72
2021/01/08 03:38:11;;;;;;;7.10;3.97;;;;;;;0.07;96.40;96126.03;4974963;28;20392;-71
2021/01/08 03:40:40;;;;;;;6.63;3.80;;;;;;;0.25;96.36;96145.94;4974668;28;20733;-70
2021/01/08 03:43:09;;;;;;;9.75;3.92;;;;;;;0.29;96.47;96149.25;4974574;28;20772;-68
2021/01/08 03:45:35;;;;;;;6.50;3.70;;;;;;;0.31;96.85;96144.97;4967924;28;20735;-68
2021/01/08 03:48:03;;;;;;;7.60;3.80;;;;;;;0.31;97.33;96143.22;4974981;28;20826;-69
2021/01/08 03:50:30;;;;;;;8.90;4.00;;;;;;;0.30;97.43;96144.09;4966690;28;20788;-70
2021/01/08 03:52:57;;;;;;;6.32;2.65;;;;;;;0.32;97.80;96144.06;4974869;28;20194;-68
2021/01/08 03:55:24;;;;;;;6.78;3.33;;;;;;;0.29;98.03;96149.25;4973932;28;20621;-69
2021/01/08 03:57:51;;;;;;;8.00;3.72;;;;;;;0.28;97.69;96139.91;4971118;28;20869;-71
2021/01/08 04:00:19;;;;;;;7.28;3.55;;;;;;;0.29;98.16;96137.31;4966000;28;20555;-71
2021/01/08 04:02:46;;;;;;;7.97;4.10;;;;;;;0.29;97.74;96145.00;4968195;28;20625;-70
2021/01/08 04:05:13;;;;;;;14.55;3.10;;;;;;;0.34;97.95;96139.72;4969588;28;20677;-71
2021/01/08 04:07:41;;;;;;;9.27;3.70;;;;;;;0.35;98.08;96137.13;4976188;28;20526;-70
2021/01/08 04:10:09;;;;;;;9.63;3.90;;;;;;;0.36;97.70;96131.13;4969584;28;20581;-69
2021/01/08 04:12:36;;;;;;;5.68;2.65;;;;;;;0.41;97.81;96131.84;4963017;28;20491;-71
2021/01/08 04:15:04;;;;;;;9.85;3.97;;;;;;;0.39;97.51;96136.16;4963521;28;20724;-71
2021/01/08 04:17:31;;;;;;;7.40;4.25;;;;;;;0.43;97.36;96134.34;4971009;28;20229;-70
2021/01/08 04:20:01;;;;;;;8.48;3.10;;;;;;;0.40;97.19;96134.44;4969643;28;20629;-71
2021/01/08 04:22:28;;;;;;;5.50;3.47;;;;;;;0.38;96.92;96137.03;4974624;28;20368;-68
2021/01/08 04:24:55;;;;;;;5.70;3.17;;;;;;;0.41;97.04;96136.09;4969760;28;20361;-69
2021/01/08 04:27:47;;;;;;;5.40;3.03;;;;;;;0.41;96.63;96126.72;4958652;28;20618;-69
2021/01/08 04:30:16;;;;;;;3.28;2.13;;;;;;;0.42;96.21;96128.41;4966375;28;20617;-71
2021/01/08 04:32:43;;;;;;;5.25;3.05;;;;;;;0.47;96.24;96134.19;4966449;28;20280;-70
2021/01/08 04:35:10;;;;;;;5.30;3.30;;;;;;;0.46;96.06;96134.25;4974429;28;20221;-70
2021/01/08 04:37:37;;;;;;;5.28;2.90;;;;;;;0.44;95.95;96130.91;4970879;28;20260;-68
2021/01/08 04:40:07;;;;;;;5.53;2.70;;;;;;;0.43;95.61;96132.63;4969694;28;20712;-69
2021/01/08 04:42:34;;;;;;;8.10;2.92;;;;;;;0.45;95.85;96127.47;4971283;28;20655;-70
2021/01/08 04:45:01;;;;;;;6.65;3.40;;;;;;;0.43;96.43;96130.06;4982460;28;20635;-69
2021/01/08 04:47:28;;;;;;;4.40;2.92;;;;;;;0.40;96.22;96130.16;4969767;28;20677;-70
2021/01/08 04:49:55;;;;;;;5.18;3.13;;;;;;;0.33;96.58;96126.13;4968622;28;20229;-70
2021/01/08 04:52:22;;;;;;;5.57;2.85;;;;;;;0.31;95.96;96122.75;4959049;28;20554;-70
2021/01/08 04:54:49;;;;;;;6.28;3.08;;;;;;;0.34;96.57;96122.69;4967342;28;20313;-72
2021/01/08 04:57:19;;;;;;;4.53;2.72;;;;;;;0.38;96.22;96125.97;4971594;28;20315;-71
2021/01/08 04:59:45;;;;;;;6.10;2.45;;;;;;;0.40;96.08;96122.50;4970224;28;20218;-70
2021/01/08 05:02:13;;;;;;;7.07;3.35;;;;;;;0.38;95.56;96121.69;4972717;28;20525;-69
2021/01/08 05:04:40;;;;;;;8.85;3.10;;;;;;;0.37;95.81;96125.13;4973615;28;20676;-69
2021/01/08 05:07:07;;;;;;;4.43;2.30;;;;;;;0.43;95.86;96124.94;4974159;28;20244;-72
2021/01/08 05:09:34;;;;;;;6.65;2.90;;;;;;;0.44;95.53;96126.63;4958974;28;20740;-70
2021/01/08 05:12:06;;;;;;;5.13;2.33;;;;;;;0.46;95.49;96122.28;4969198;28;20679;-69
2021/01/08 05:14:34;;;;;;;5.32;2.63;;;;;;;0.45;95.58;96122.34;4969963;28;20268;-70
2021/01/08 05:17:00;;;;;;;6.43;2.72;;;;;;;0.40;95.64;96124.19;4973731;28;20641;-70
2021/01/08 05:19:27;;;;;;;4.20;2.50;;;;;;;0.41;95.99;96115.63;4973170;28;20233;-71
2021/01/08 05:21:55;;;;;;;5.25;3.10;;;;;;;0.39;95.94;96119.97;4976766;28;20700;-68
2021/01/08 05:24:23;;;;;;;6.22;3.10;;;;;;;0.40;95.87;96125.06;4967915;28;20233;-71
2021/01/08 05:26:50;;;;;;;10.02;4.55;;;;;;;0.47;95.88;96123.13;4978293;28;20562;-69
2021/01/08 05:29:17;;;;;;;5.13;3.08;;;;;;;0.52;96.03;96123.84;4970747;28;20353;-68
2021/01/08 05:31:47;;;;;;;13.73;3.35;;;;;;;0.50;95.63;96121.31;4973587;28;20233;-68
2021/01/08 05:34:22;;;;;;;3.85;2.55;;;;;;;0.58;95.94;96123.63;4975211;28;20898;-69
2021/01/08 05:36:49;;;;;;;6.97;3.40;;;;;;;0.58;95.91;96121.91;4978503;28;20518;-68
2021/01/08 05:39:20;;;;;;;5.72;2.50;;;;;;;0.51;96.35;96117.88;4973660;28;20668;-68
2021/01/08 05:41:47;;;;;;;3.63;2.40;;;;;;;0.58;96.00;96121.91;4971199;28;20501;-68
2021/01/08 05:44:16;;;;;;;11.75;4.50;;;;;;;0.53;95.95;96131.44;4975483;28;20322;-68
2021/01/08 05:46:49;;;;;;;16.10;5.78;;;;;;;0.57;96.26;96127.91;4970318;28;20498;-69
2021/01/08 05:49:18;;;;;;;19.80;6.00;;;;;;;0.54;96.30;96128.00;4970870;28;20350;-68
2021/01/08 05:51:45;;;;;;;9.48;4.60;;;;;;;0.48;96.28;96129.91;4978515;28;20202;-69
2021/01/08 05:54:12;;;;;;;13.98;3.75;;;;;;;0.47;96.56;96126.50;4972460;28;20897;-69
2021/01/08 05:56:40;;;;;;;9.65;3.20;;;;;;;0.51;96.01;96133.22;4977494;28;20282;-68
2021/01/08 05:59:08;;;;;;;9.05;3.28;;;;;;;0.54;96.09;96132.28;4961389;28;20293;-68
2021/01/08 06:01:37;;;;;;;4.72;2.00;;;;;;;0.55;95.99;96128.84;4963426;28;20195;-68
2021/01/08 06:04:08;;;;;;;5.57;3.00;;;;;;;0.57;95.83;96138.16;4970362;28;20255;-69
2021/01/08 06:06:42;;;;;;;4.72;2.58;;;;;;;0.60;95.98;96132.94;4963708;28;20298;-68
2021/01/08 06:09:17;;;;;;;6.55;3.22;;;;;;;0.52;95.78;96111.84;4970717;28;20628;-68
2021/01/08 06:11:45;;;;;;;3.38;2.10;;;;;;;0.72;95.36;96137.69;4962318;28;20581;-69
2021/01/08 06:14:13;;;;;;;9.07;2.83;;;;;;;0.72;95.22;96136.84;4966652;28;20540;-70
2021/01/08 06:16:44;;;;;;;4.55;2.50;;;;;;;0.72;94.97;96142.81;4971199;28;20195;-69
2021/01/08 06:19:14;;;;;;;7.25;2.60;;;;;;;0.74;95.35;96145.31;4966548;28;20748;-69
2021/01/08 06:21:42;;;;;;;3.35;2.00;;;;;;;0.74;93.99;96145.31;4977440;28;20714;-69
2021/01/08 06:24:13;;;;;;;4.55;2.00;;;;;;;0.74;93.98;96146.16;4961314;28;20265;-69
2021/01/08 06:26:42;;;;;;;4.07;2.70;;;;;;;0.70;94.23;96143.72;4966235;28;20265;-68
2021/01/08 06:29:16;;;;;;;4.53;2.65;;;;;;;0.71;94.08;96140.28;4969819;28;20217;-71
2021/01/08 06:31:47;;;;;;;6.22;2.88;;;;;;;0.71;93.81;96141.13;4975942;28;20197;-69
2021/01/08 06:34:22;;;;;;;3.35;2.22;;;;;;;0.71;94.14;96148.81;4971752;28;20232;-69
2021/01/08 06:37:03;;;;;;;4.60;2.47;;;;;;;0.72;94.17;96147.06;4975277;28;20202;-69
2021/01/08 06:39:35;;;;;;;4.13;2.70;;;;;;;0.78;94.18;96152.00;4976732;28;20719;-70
2021/01/08 06:42:03;;;;;;;9.80;3.72;;;;;;;0.67;94.31;96154.91;4970501;28;20237;-69
2021/01/08 06:44:31;;;;;;;6.65;3.08;;;;;;;0.58;94.48;96150.06;4967961;28;20229;-69
2021/01/08 06:47:00;;;;;;;3.95;3.05;;;;;;;0.55;94.75;96162.13;4973410;28;20202;-69
2021/01/08 06:49:30;;;;;;;8.32;3.55;;;;;;;0.57;95.31;96161.19;4967341;28;20681;-68
2021/01/08 06:51:59;;;;;;;6.20;2.95;;;;;;;0.50;95.72;96161.41;4976469;28;20284;-69
2021/01/08 06:54:27;;;;;;;6.68;2.65;;;;;;;0.55;95.45;96157.84;4969749;28;20532;-69
2021/01/08 06:56:59;;;;;;;5.13;3.03;;;;;;;0.60;95.34;96162.84;4976983;28;20198;-69
2021/01/08 06:59:30;;;;;;;4.47;2.45;;;;;;;0.55;95.68;96160.41;4974461;28;20618;-69
2021/01/08 07:02:03;;;;;;;3.85;2.10;;;;;;;0.62;95.48;96156.78;4973816;28;20728;-69
2021/01/08 07:04:32;;;;;;;4.60;2.25;;;;;;;0.59;95.18;96161.16;4970310;28;20748;-68
2021/01/08 07:07:02;;;;;;;3.17;2.25;;;;;;;0.57;95.30;96171.44;4974534;28;20640;-69
2021/01/08 07:09:32;;;;;;;5.90;2.50;;;;;;;0.53;95.66;96169.03;4970217;28;20628;-68
2021/01/08 07:12:00;;;;;;;4.20;2.30;;;;;;;0.53;96.01;96166.47;4972013;28;20253;-68
2021/01/08 07:14:27;;;;;;;6.80;2.75;;;;;;;0.49;96.24;96175.94;4968485;28;20634;-69
2021/01/08 07:16:55;;;;;;;5.50;2.70;;;;;;;0.49;96.26;96175.09;4973943;28;20715;-69
2021/01/08 07:19:25;;;;;;;7.13;3.40;;;;;;;0.50;96.58;96175.06;4967362;28;20574;-69
2021/01/08 07:22:00;;;;;;;8.30;3.97;;;;;;;0.49;96.65;96173.41;4969476;28;20570;-69
2021/01/08 07:24:30;;;;;;;10.00;4.07;;;;;;;0.48;96.97;96179.41;4968969;28;20256;-69
2021/01/08 07:27:15;;;;;;;7.13;4.00;;;;;;;0.45;97.39;96178.66;4972732;28;20642;-69
2021/01/08 07:29:50;;;;;;;8.40;4.50;;;;;;;0.37;97.11;96165.25;4974494;28;20312;-69
2021/01/08 07:32:30;;;;;;;12.77;4.88;;;;;;;0.42;97.97;96173.59;4959704;28;20573;-71
2021/01/08 07:38:45;;;;;;;2.80;1.55;;;;;;;0.35;98.16;96188.31;4966031;28;20528;-69
2021/01/08 07:41:12;;;;;;;3.28;1.67;;;;;;;0.37;98.58;96186.53;4973530;28;20249;-69
2021/01/08 07:43:38;;;;;;;4.50;1.80;;;;;;;0.39;99.28;96191.63;4973986;28;20604;-69
2021/01/08 07:46:08;;;;;;;4.03;1.83;;;;;;;0.44;98.81;96193.16;4965973;28;20200;-69
2021/01/08 07:48:38;;;;;;;3.17;2.08;;;;;;;0.42;99.02;96199.19;4962998;28;20542;-68
2021/01/08 07:51:08;;;;;;;2.53;1.60;;;;;;;0.43;99.31;96206.84;4967973;28;20197;-69
2021/01/08 07:53:55;;;;;;;4.10;3.25;;;;;;;0.48;99.36;96204.13;4959082;28;20210;-69
2021/01/08 07:56:23;;;;;;;4.85;1.70;;;;;;;0.51;99.10;96204.03;4967538;28;20612;-70
2021/01/08 07:59:00;;;;;;;2.63;1.75;;;;;;;0.45;99.16;96210.19;4970720;28;20612;-72
2021/01/08 08:01:27;;;;;;;2.90;1.50;;;;;;;0.47;99.24;96208.41;4969382;28;20226;-70
2021/01/08 08:03:59;;;;;;;4.82;1.20;;;;;;;0.48;99.25;96209.25;4974058;28;20233;-70
2021/01/08 08:06:27;;;;;;;2.80;2.15;;;;;;;0.49;99.38;96216.91;4971160;28;20562;-69
2021/01/08 08:08:58;;;;;;;2.92;1.83;;;;;;;0.52;98.64;96223.66;4967486;28;20230;-70
2021/01/08 08:11:34;;;;;;;3.75;2.50;;;;;;;0.47;99.24;96223.75;4971157;28;20198;-70
2021/01/08 08:14:03;;;;;;;16.38;7.22;;;;;;;0.54;99.63;96220.16;4966864;28;21150;-70
2021/01/08 08:16:31;;;;;;;5.03;2.78;;;;;;;0.52;98.86;96216.81;4969214;28;20289;-70
2021/01/08 08:18:59;;;;;;;4.57;2.92;;;;;;;0.54;99.00;96217.59;4968666;28;20654;-70
2021/01/08 08:21:26;;;;;;;2.60;1.75;;;;;;;0.55;98.41;96226.97;4972650;28;20558;-70
2021/01/08 08:23:55;;;;;;;2.45;1.92;;;;;;;0.60;98.38;96224.28;4968853;28;20233;-70
2021/01/08 08:26:22;;;;;;;2.78;1.58;;;;;;;0.50;98.22;96223.69;4970257;28;20634;-72
2021/01/08 08:29:04;;;;;;;4.43;2.13;;;;;;;0.57;98.44;96234.59;4975263;28;20766;-70
2021/01/08 08:31:32;;;;;;;4.05;2.30;;;;;;;0.57;98.04;96237.13;4973082;28;20580;-70
2021/01/08 08:34:00;;;;;;;2.17;1.27;;;;;;;0.47;96.89;96223.75;4971019;28;20661;-70
2021/01/08 08:36:28;;;;;;;3.05;1.90;;;;;;;0.55;97.11;96242.34;4971498;28;20576;-70
2021/01/08 08:39:03;;;;;;;2.70;1.60;;;;;;;0.57;96.89;96250.78;4972331;28;20727;-70
2021/01/08 08:41:30;;;;;;;1.80;1.35;;;;;;;0.65;97.33;96251.41;4970571;28;20248;-69
2021/01/08 08:44:05;;;;;;;3.47;1.52;;;;;;;0.75;97.44;96254.53;4972948;28;20537;-70
2021/01/08 08:46:45;;;;;;;4.10;1.67;;;;;;;0.76;97.00;96262.16;4973133;28;20206;-70
2021/01/08 08:49:13;;;;;;;2.45;1.55;;;;;;;0.78;96.42;96260.41;4966732;28;20559;-69
2021/01/08 08:51:41;;;;;;;26.08;11.00;;;;;;;0.88;96.10;96266.91;4965901;28;20277;-69
2021/01/08 08:54:10;;;;;;;4.43;2.50;;;;;;;0.94;95.43;96256.50;4970695;28;20694;-70
2021/01/08 08:56:40;;;;;;;2.85;1.80;;;;;;;1.05;95.65;96264.69;4968834;28;20636;-69
2021/01/08 08:59:07;;;;;;;3.05;1.92;;;;;;;1.16;95.36;96262.63;4971347;28;20619;-70
2021/01/08 09:01:42;;;;;;;4.65;1.80;;;;;;;1.15;93.72;96265.25;4973615;28;20222;-70
2021/01/08 09:04:12;;;;;;;1.83;1.60;;;;;;;1.15;93.94;96260.97;4972445;28;20294;-74
2021/01/08 09:06:44;;;;;;;3.53;1.77;;;;;;;1.22;94.11;96272.72;4973427;28;20649;-71
2021/01/08 09:09:24;;;;;;;2.63;1.95;;;;;;;1.26;93.85;96265.75;4970980;28;20671;-70
2021/01/08 09:12:10;;;;;;;2.20;1.52;;;;;;;1.16;94.46;96270.34;4970604;28;20644;-71
2021/01/08 09:14:39;;;;;;;3.38;2.03;;;;;;;1.15;94.97;96266.09;4962840;28;20246;-71
2021/01/08 09:17:12;;;;;;;3.30;2.20;;;;;;;1.26;94.71;96266.59;4966815;28;20201;-70
2021/01/08 09:19:45;;;;;;;5.75;2.13;;;;;;;1.30;93.93;96264.75;4966621;28;20696;-71
2021/01/08 09:22:15;;;;;;;3.60;1.80;;;;;;;1.27;93.54;96270.81;4967339;28;20220;-70
2021/01/08 09:24:48;;;;;;;3.45;2.45;;;;;;;1.07;94.31;96273.19;4971676;28;20603;-70
2021/01/08 09:27:15;;;;;;;3.33;1.95;;;;;;;1.13;94.66;96264.47;4967597;28;20642;-70
2021/01/08 09:29:43;;;;;;;5.22;1.85;;;;;;;1.21;94.02;96271.03;4972178;28;20310;-70
2021/01/08 09:32:10;;;;;;;4.15;2.28;;;;;;;1.13;93.62;96273.00;4956282;28;20812;-70
2021/01/08 09:34:38;;;;;;;3.67;2.08;;;;;;;1.20;93.79;96271.06;4965736;28;20681;-69
2021/01/08 09:37:15;;;;;;;6.88;2.55;;;;;;;1.13;93.12;96273.00;4968958;28;20613;-70
2021/01/08 09:39:44;;;;;;;5.78;2.20;;;;;;;1.09;93.10;96271.41;4961389;28;20222;-70
2021/01/08 09:42:12;;;;;;;6.82;2.60;;;;;;;1.00;93.81;96268.28;4964129;28;20531;-69
2021/01/08 09:44:40;;;;;;;3.97;2.17;;;;;;;1.00;93.80;96270.84;4972057;28;20549;-69
2021/01/08 09:47:09;;;;;;;4.85;3.00;;;;;;;1.06;94.61;96276.63;4971213;28;20502;-70
2021/01/08 09:49:41;;;;;;;4.70;2.65;;;;;;;1.15;93.44;96271.22;4962647;28;20672;-69
2021/01/08 09:52:10;;;;;;;2.88;1.80;;;;;;;1.28;92.28;96280.22;4955866;28;20291;-70
2021/01/08 09:54:44;;;;;;;4.88;2.97;;;;;;;1.25;91.95;96277.72;4966449;28;20272;-69
2021/01/08 09:57:25;;;;;;;5.18;2.53;;;;;;;1.24;91.56;96273.50;4972513;28;20656;-71
2021/01/08 09:59:56;;;;;;;2.85;2.30;;;;;;;1.24;92.17;96276.06;4969376;28;20272;-69
2021/01/08 10:02:36;;;;;;;7.28;3.10;;;;;;;1.31;92.55;96285.22;4955499;28;20226;-69
2021/01/08 10:05:04;;;;;;;6.35;2.55;;;;;;;1.37;92.26;96282.47;4960217;28;20234;-69
2021/01/08 10:07:45;;;;;;;7.60;3.03;;;;;;;1.53;91.66;96278.53;4959962;28;20657;-72
2021/01/08 10:10:14;;;;;;;5.10;2.92;;;;;;;1.72;90.10;96279.63;4965171;28;20774;-68
2021/01/08 10:12:46;;;;;;;3.20;2.15;;;;;;;1.84;89.74;96273.25;4967724;28;20234;-69
2021/01/08 10:15:15;;;;;;;5.03;3.15;;;;;;;2.16;88.23;96271.25;4967893;28;20745;-68
2021/01/08 10:17:45;;;;;;;4.32;2.60;;;;;;;2.20;86.94;96277.94;4968105;28;20711;-68
2021/01/08 10:20:17;;;;;;;4.57;2.78;;;;;;;2.16;87.21;96278.97;4973219;28;20237;-69
2021/01/08 10:22:52;;;;;;;6.20;3.45;;;;;;;2.24;85.43;96276.97;4972155;28;20543;-68
2021/01/08 10:25:28;;;;;;;4.43;2.78;;;;;;;2.40;85.48;96282.38;4972844;28;20655;-69
2021/01/08 10:28:12;;;;;;;7.13;3.35;;;;;;;2.64;82.99;96282.34;4970444;28;20667;-69
2021/01/08 10:30:40;;;;;;;8.20;2.72;;;;;;;2.51;83.72;96278.53;4966954;28;20272;-69
2021/01/08 10:33:08;;;;;;;7.85;3.17;;;;;;;2.40;83.07;96275.53;4971451;28;20248;-69
2021/01/08 10:35:35;;;;;;;4.70;2.75;;;;;;;2.20;82.89;96275.38;4966230;28;20268;-68
2021/01/08 10:38:03;;;;;;;5.95;3.13;;;;;;;1.94;83.88;96272.88;4971788;28;20198;-69
2021/01/08 10:40:31;;;;;;;3.40;1.92;;;;;;;1.85;83.94;96272.34;4971118;28;20280;-68
2021/01/08 10:42:58;;;;;;;9.05;2.50;;;;;;;1.80;84.93;96276.78;4973650;28;20629;-68
2021/01/08 10:45:25;;;;;;;5.25;2.50;;;;;;;1.78;84.51;96279.41;4974950;28;20234;-69
2021/01/08 10:47:52;;;;;;;6.43;2.50;;;;;;;1.87;84.07;96273.97;4975962;28;20241;-68
2021/01/08 10:50:20;;;;;;;6.75;2.60;;;;;;;2.09;84.30;96267.22;4969791;28;20253;-69
2021/01/08 10:52:47;;;;;;;4.68;2.55;;;;;;;2.24;81.59;96273.53;4977562;28;20222;-69
2021/01/08 10:55:24;;;;;;;9.02;3.20;;;;;;;2.23;81.88;96272.72;4974937;28;20686;-68
2021/01/08 10:57:51;;;;;;;9.48;3.90;;;;;;;2.10;82.35;96268.91;4973766;28;20576;-73
2021/01/08 11:00:21;;;;;;;6.43;3.03;;;;;;;2.14;81.33;96267.88;4970278;28;20230;-71
2021/01/08 11:02:50;;;;;;;7.47;3.33;;;;;;;1.98;82.69;96271.88;4974935;28;20201;-71
2021/01/08 11:05:18;;;;;;;7.38;2.53;;;;;;;2.15;83.04;96263.59;4973865;28;20317;-71
2021/01/08 11:07:45;;;;;;;6.82;3.83;;;;;;;2.14;83.37;96260.19;4975581;28;20198;-70
2021/01/08 11:10:13;;;;;;;5.18;2.78;;;;;;;2.31;82.76;96259.59;4970439;28;20260;-71
2021/01/08 11:12:40;;;;;;;5.03;2.90;;;;;;;2.30;81.93;96268.22;4975993;28;20290;-71
2021/01/08 11:15:08;;;;;;;5.53;2.85;;;;;;;2.35;82.80;96266.31;4971273;28;20620;-71
2021/01/08 11:17:35;;;;;;;6.20;4.18;;;;;;;2.38;82.70;96267.06;4974196;28;20555;-71
2021/01/08 11:20:03;;;;;;;5.45;3.72;;;;;;;2.45;81.97;96263.38;4971085;28;20226;-71
2021/01/08 11:22:30;;;;;;;7.00;3.45;;;;;;;2.49;81.93;96259.78;4975663;28;20535;-71
2021/01/08 11:24:58;;;;;;;4.00;2.95;;;;;;;2.38;80.94;96261.06;4976582;28;20627;-71
2021/01/08 11:27:24;;;;;;;8.63;3.55;;;;;;;2.31;81.20;96260.47;4974463;28;20713;-70
2021/01/08 11:29:51;;;;;;;9.60;3.05;;;;;;;2.34;81.88;96265.47;4971711;28;20726;-71
2021/01/08 11:32:19;;;;;;;4.80;2.78;;;;;;;2.49;81.36;96259.78;4974541;28;20724;-71
2021/01/08 11:34:46;;;;;;;5.43;2.72;;;;;;;2.60;81.59;96249.97;4969558;28;20598;-71
2021/01/08 11:37:13;;;;;;;5.32;3.80;;;;;;;2.59;82.05;96255.97;4975830;28;20285;-71
2021/01/08 11:39:46;;;;;;;5.88;2.90;;;;;;;2.62;81.94;96255.88;4967135;28;20236;-71
2021/01/08 11:42:14;;;;;;;6.07;2.85;;;;;;;2.47;81.81;96266.72;4972728;28;20618;-71
2021/01/08 11:44:41;;;;;;;5.35;2.95;;;;;;;2.26;83.14;96261.50;4973229;28;20230;-71
2021/01/08 11:47:08;;;;;;;7.85;3.42;;;;;;;2.15;84.04;96259.28;4975785;28;20243;-71
2021/01/08 11:49:36;;;;;;;10.45;5.00;;;;;;;2.08;84.22;96263.00;4968059;28;20684;-70
2021/01/08 11:52:04;;;;;;;8.93;3.90;;;;;;;2.22;85.31;96255.63;4970043;28;20224;-71
2021/01/08 11:54:31;;;;;;;5.93;3.17;;;;;;;2.15;84.79;96243.06;4975728;28;20272;-71